Time;durP1;ratioP1;P1;durP2;ratioP2;P2;SDS_P1;SDS_P2;PMS_P1;PMS_P2;Temp;Humidity;BMP_temperature;BMP_pressure;BME280_temperature;BME280_humidity;BME280_pressure;Samples;Min_cycle;Max_cycle;Signal;HPM_P1;HPM_P2
2022/08/24 00:02:24;;;;;;;32.65;27.98;;;19.80;99.90;;;;;;5015798;28;20109;-93
2022/08/24 00:04:51;;;;;;;36.45;31.10;;;20.00;99.90;;;;;;4999803;28;20112;-93
2022/08/24 00:07:18;;;;;;;34.95;30.38;;;19.70;99.90;;;;;;4995903;28;20041;-93
2022/08/24 00:09:44;;;;;;;34.35;29.20;;;20.20;99.90;;;;;;5013260;28;20478;-92
2022/08/24 00:12:10;;;;;;;37.63;32.85;;;19.90;99.90;;;;;;4996049;28;20073;-92
2022/08/24 00:14:41;;;;;;;39.70;33.05;;;19.80;99.90;;;;;;4995948;28;20041;-93
2022/08/24 00:17:07;;;;;;;38.80;32.20;;;19.70;99.90;;;;;;5013187;28;20142;-93
2022/08/24 00:19:33;;;;;;;39.13;32.83;;;19.70;99.90;;;;;;4995852;28;20384;-92
2022/08/24 00:21:59;;;;;;;34.95;31.05;;;20.10;99.90;;;;;;4996055;28;20052;-92
2022/08/24 00:24:25;;;;;;;37.97;32.22;;;19.80;99.90;;;;;;4995593;28;20073;-93
2022/08/24 00:26:51;;;;;;;39.38;32.47;;;19.70;99.90;;;;;;5012974;28;20042;-93
2022/08/24 00:29:17;;;;;;;42.00;34.20;;;19.90;99.90;;;;;;5013004;28;20497;-93
2022/08/24 00:31:43;;;;;;;38.47;32.28;;;20.00;99.90;;;;;;4995205;28;20042;-93
2022/08/24 00:34:12;;;;;;;38.60;32.88;;;19.50;99.90;;;;;;5013222;28;20482;-93
2022/08/24 00:36:40;;;;;;;36.22;31.48;;;19.50;99.90;;;;;;4997497;28;20049;-92
2022/08/24 00:39:07;;;;;;;39.08;32.22;;;19.60;99.90;;;;;;5000821;28;20394;-93
2022/08/24 00:41:34;;;;;;;40.75;34.67;;;19.50;99.90;;;;;;4996235;28;20054;-93
2022/08/24 00:44:02;;;;;;;40.55;33.15;;;19.80;99.90;;;;;;4995866;28;20041;-92
2022/08/24 00:46:46;;;;;;;40.33;34.53;;;19.50;99.90;;;;;;5016052;28;20033;-92
2022/08/24 00:49:28;;;;;;;39.03;34.33;;;19.30;99.90;;;;;;5016735;28;20042;-92
2022/08/24 00:52:11;;;;;;;41.10;34.47;;;19.20;99.90;;;;;;4995543;28;20057;-92
2022/08/24 00:54:43;;;;;;;41.30;34.05;;;19.10;99.90;;;;;;5017310;28;20042;-93
2022/08/24 00:57:10;;;;;;;41.88;33.30;;;19.20;99.90;;;;;;5005726;28;20068;-92
2022/08/24 00:59:43;;;;;;;40.92;34.00;;;19.00;99.90;;;;;;4999189;28;20045;-92
2022/08/24 01:02:19;;;;;;;41.13;35.05;;;19.40;99.90;;;;;;5016985;28;20060;-92
2022/08/24 01:04:52;;;;;;;41.90;35.70;;;18.90;99.90;;;;;;5016708;28;20041;-92
2022/08/24 01:07:21;;;;;;;42.33;36.38;;;18.90;99.90;;;;;;4998546;28;20057;-93
2022/08/24 01:09:47;;;;;;;42.45;34.67;;;18.90;99.90;;;;;;4999189;28;20056;-93
2022/08/24 01:12:13;;;;;;;42.05;34.90;;;19.10;99.90;;;;;;4998934;28;20046;-92
2022/08/24 01:14:39;;;;;;;40.08;32.95;;;18.70;99.90;;;;;;4998697;28;20565;-92
2022/08/24 01:20:03;;;;;;;40.95;34.67;;;19.20;99.90;;;;;;5015753;28;20049;-92
2022/08/24 01:22:57;;;;;;;39.35;33.50;;;18.60;99.90;;;;;;5016383;28;20053;-92
2022/08/24 01:25:26;;;;;;;43.10;34.78;;;18.70;99.90;;;;;;4998557;28;20056;-93
2022/08/24 01:27:58;;;;;;;40.40;34.47;;;18.60;99.90;;;;;;5015599;28;20411;-93
2022/08/24 01:30:25;;;;;;;42.47;36.92;;;18.50;99.90;;;;;;4998110;28;20116;-93
2022/08/24 01:32:58;;;;;;;41.33;34.63;;;18.50;99.90;;;;;;5017638;28;20125;-90
2022/08/24 01:35:24;;;;;;;;;;;18.40;99.90;;;;;;5012664;28;20049;-93
2022/08/24 01:37:51;;;;;;;46.72;35.42;;;18.90;99.90;;;;;;5016233;28;19929;-93
2022/08/24 01:40:18;;;;;;;41.30;35.72;;;18.40;99.90;;;;;;5000597;28;20436;-93
2022/08/24 01:42:51;;;;;;;46.95;39.10;;;18.40;99.90;;;;;;4998444;28;20050;-93
2022/08/24 01:45:18;;;;;;;48.28;39.80;;;18.50;99.90;;;;;;4998229;28;20045;-93
2022/08/24 01:47:44;;;;;;;44.78;37.72;;;18.30;99.90;;;;;;4999024;28;20042;-93
2022/08/24 01:50:10;;;;;;;44.90;36.90;;;18.30;99.90;;;;;;4998508;28;20509;-93
2022/08/24 01:52:38;;;;;;;49.78;38.97;;;18.30;99.90;;;;;;4998183;28;20081;-93
2022/08/24 01:55:13;;;;;;;45.10;36.83;;;18.50;99.90;;;;;;5015732;28;20046;-93
2022/08/24 01:57:39;;;;;;;49.10;37.47;;;18.20;99.90;;;;;;5022423;28;20052;-92
2022/08/24 02:00:08;;;;;;;43.08;36.28;;;18.20;99.90;;;;;;5023713;28;20038;-92
2022/08/24 02:02:34;;;;;;;44.65;36.78;;;18.10;99.90;;;;;;4983361;28;20049;-92
2022/08/24 02:05:00;;;;;;;43.67;35.15;;;18.10;99.90;;;;;;4980814;28;20099;-92
2022/08/24 02:07:28;;;;;;;44.00;36.03;;;18.10;99.90;;;;;;4979057;28;20069;-92
2022/08/24 02:09:54;;;;;;;44.05;36.42;;;18.40;99.90;;;;;;4961603;28;20043;-92
2022/08/24 02:12:20;;;;;;;43.15;34.97;;;18.00;99.90;;;;;;4959265;28;20138;-93
2022/08/24 02:14:46;;;;;;;46.55;38.60;;;18.70;99.90;;;;;;4959101;28;20065;-92
2022/08/24 02:17:12;;;;;;;47.50;38.03;;;18.00;99.90;;;;;;4976232;28;20042;-92
2022/08/24 02:19:38;;;;;;;43.70;36.83;;;18.00;99.90;;;;;;4958910;28;20055;-91
2022/08/24 02:22:04;;;;;;;44.75;36.20;;;18.30;99.90;;;;;;4961290;28;20138;-91
2022/08/24 02:24:30;;;;;;;49.63;38.70;;;17.90;99.90;;;;;;4976691;28;20050;-91
2022/08/24 02:26:56;;;;;;;47.20;37.80;;;17.90;99.90;;;;;;4966560;28;20049;-92
2022/08/24 02:29:22;;;;;;;48.58;38.40;;;17.80;99.90;;;;;;4958814;28;20134;-92
2022/08/24 02:31:47;;;;;;;46.47;37.38;;;17.80;99.90;;;;;;4959153;28;20056;-92
2022/08/24 02:34:14;;;;;;;45.50;38.08;;;17.90;99.90;;;;;;4965879;28;20038;-92
2022/08/24 02:36:40;;;;;;;46.30;37.75;;;17.80;99.90;;;;;;4964910;28;20042;-92
2022/08/24 02:39:07;;;;;;;49.97;38.22;;;17.80;99.90;;;;;;4961258;28;20113;-92
2022/08/24 02:41:34;;;;;;;48.67;37.60;;;17.90;99.90;;;;;;4958194;28;20047;-92
2022/08/24 02:44:00;;;;;;;47.92;37.25;;;17.70;99.90;;;;;;4958292;28;20395;-92
2022/08/24 02:46:29;;;;;;;44.47;37.47;;;17.70;99.90;;;;;;4981174;28;20042;-93
2022/08/24 02:48:57;;;;;;;46.55;36.92;;;18.00;99.90;;;;;;4960640;28;20080;-92
2022/08/24 02:51:26;;;;;;;47.63;38.72;;;17.80;99.90;;;;;;4958236;28;20054;-92
2022/08/24 02:53:52;;;;;;;45.15;37.67;;;17.60;99.90;;;;;;4975909;28;20035;-91
2022/08/24 02:56:19;;;;;;;45.60;37.17;;;17.60;99.90;;;;;;4957993;28;20082;-93
2022/08/24 02:58:45;;;;;;;47.45;38.88;;;18.00;99.90;;;;;;4957717;28;20054;-92
2022/08/24 03:01:13;;;;;;;45.88;37.58;;;17.50;99.90;;;;;;4975790;28;20097;-92
2022/08/24 03:03:39;;;;;;;43.17;36.78;;;17.50;99.90;;;;;;4958011;28;20641;-92
2022/08/24 03:06:06;;;;;;;46.17;37.58;;;17.50;99.90;;;;;;4975053;28;20042;-91
2022/08/24 03:08:33;;;;;;;52.55;38.35;;;17.50;99.90;;;;;;4958549;28;20139;-92
2022/08/24 03:10:59;;;;;;;54.63;42.47;;;17.50;99.90;;;;;;4965844;28;20042;-91
2022/08/24 03:13:26;;;;;;;48.95;40.67;;;17.80;99.90;;;;;;4977044;28;20077;-92
2022/08/24 03:15:54;;;;;;;52.35;39.58;;;17.60;99.90;;;;;;4960483;28;20047;-92
2022/08/24 03:18:21;;;;;;;49.55;38.83;;;18.00;99.90;;;;;;4957565;28;20054;-92
2022/08/24 03:20:48;;;;;;;48.33;38.35;;;17.40;99.90;;;;;;4957223;28;20058;-93
2022/08/24 03:23:14;;;;;;;48.15;37.67;;;17.40;99.90;;;;;;4957887;28;20532;-92
2022/08/24 03:25:40;;;;;;;47.40;38.47;;;17.40;99.90;;;;;;4975245;28;20129;-93
2022/08/24 03:28:05;;;;;;;49.47;39.17;;;17.40;99.90;;;;;;4957299;28;20518;-92
2022/08/24 03:30:31;;;;;;;50.30;39.50;;;17.70;99.90;;;;;;4974907;28;20514;-92
2022/08/24 03:32:56;;;;;;;50.83;38.95;;;17.30;99.90;;;;;;4957923;28;20046;-92
2022/08/24 03:35:22;;;;;;;44.65;35.40;;;17.30;99.90;;;;;;4974389;28;20046;-92
2022/08/24 03:37:49;;;;;;;46.50;37.35;;;17.30;99.90;;;;;;4974875;28;20398;-92
2022/08/24 03:40:16;;;;;;;45.35;37.60;;;17.30;99.90;;;;;;4974528;28;20051;-92
2022/08/24 03:42:41;;;;;;;48.00;36.92;;;17.80;99.90;;;;;;4957001;28;20050;-92
2022/08/24 03:45:09;;;;;;;45.17;36.42;;;17.30;99.90;;;;;;4957364;28;20042;-92
2022/08/24 03:47:35;;;;;;;47.40;37.78;;;17.20;99.90;;;;;;4973986;28;20061;-93
2022/08/24 03:50:01;;;;;;;53.53;41.00;;;17.20;99.90;;;;;;4957285;28;20082;-92
2022/08/24 03:52:27;;;;;;;50.10;39.58;;;17.20;99.90;;;;;;4957200;28;20043;-92
2022/08/24 03:54:52;;;;;;;53.00;40.17;;;17.10;99.90;;;;;;4956858;28;20050;-92
2022/08/24 03:57:18;;;;;;;45.85;37.33;;;17.20;99.90;;;;;;4974231;28;20046;-93
2022/08/24 03:59:44;;;;;;;48.00;37.15;;;17.10;99.90;;;;;;4957345;28;20058;-93
2022/08/24 04:02:09;;;;;;;51.33;37.20;;;17.00;99.90;;;;;;4956566;28;20053;-90
2022/08/24 04:04:36;;;;;;;46.58;35.53;;;17.00;99.90;;;;;;4973855;28;20046;-92
2022/08/24 04:07:03;;;;;;;44.60;34.95;;;17.10;99.90;;;;;;4974209;28;20043;-92
2022/08/24 04:09:29;;;;;;;44.20;34.45;;;17.10;99.90;;;;;;4963152;28;20042;-92
2022/08/24 04:11:54;;;;;;;42.60;34.00;;;17.10;99.90;;;;;;4958134;28;20054;-91
2022/08/24 04:14:20;;;;;;;49.45;35.45;;;17.00;99.90;;;;;;4957286;28;20050;-91
2022/08/24 04:16:46;;;;;;;44.88;35.15;;;17.10;99.90;;;;;;4956716;28;20134;-92
2022/08/24 04:19:15;;;;;;;48.20;36.80;;;17.00;99.90;;;;;;4956979;28;20059;-92
2022/08/24 04:21:43;;;;;;;47.58;37.92;;;17.00;99.90;;;;;;4975316;28;20038;-91
2022/08/24 04:24:10;;;;;;;45.92;37.15;;;16.90;99.90;;;;;;4974132;28;20614;-93
2022/08/24 04:26:38;;;;;;;44.70;36.35;;;16.90;99.90;;;;;;4975822;28;20112;-90
2022/08/24 04:29:08;;;;;;;46.58;35.25;;;16.90;99.90;;;;;;4978381;28;20062;-92
2022/08/24 04:31:38;;;;;;;49.20;36.28;;;17.40;99.90;;;;;;4960638;28;20223;-92
2022/08/24 04:34:04;;;;;;;50.25;38.47;;;16.90;99.90;;;;;;4963214;28;20545;-90
2022/08/24 04:36:31;;;;;;;48.85;37.00;;;16.90;99.90;;;;;;4986801;28;20054;-91
2022/08/24 04:38:57;;;;;;;45.92;35.58;;;16.90;99.90;;;;;;4978394;28;20047;-91
2022/08/24 04:41:25;;;;;;;43.38;34.40;;;16.90;99.90;;;;;;4960942;28;20058;-91
2022/08/24 04:43:52;;;;;;;45.90;35.55;;;16.80;99.90;;;;;;4964794;28;20069;-92
2022/08/24 04:46:19;;;;;;;51.35;37.17;;;16.90;99.90;;;;;;4967228;28;20122;-91
2022/08/24 04:48:46;;;;;;;53.08;38.88;;;16.90;99.90;;;;;;4999878;28;20024;-92
2022/08/24 04:51:14;;;;;;;48.72;37.22;;;17.00;99.90;;;;;;4964933;28;20561;-93
2022/08/24 04:53:40;;;;;;;44.88;35.85;;;16.90;99.90;;;;;;4960454;28;20074;-92
2022/08/24 04:56:18;;;;;;;45.10;32.80;;;16.90;99.90;;;;;;4976476;28;20054;-93
2022/08/24 04:58:44;;;;;;;40.60;30.40;;;17.00;99.90;;;;;;4962305;28;20434;-92
2022/08/24 05:01:16;;;;;;;40.38;30.70;;;17.30;99.90;;;;;;4980120;28;20120;-92
2022/08/24 05:03:50;;;;;;;44.13;31.13;;;17.00;99.90;;;;;;4962343;28;20049;-92
2022/08/24 05:06:19;;;;;;;;;;;17.00;99.90;;;;;;4979798;28;20053;-92
2022/08/24 05:08:46;;;;;;;44.20;29.85;;;17.00;99.90;;;;;;4960466;28;20009;-92
2022/08/24 05:11:12;;;;;;;42.03;30.58;;;17.00;99.90;;;;;;4960617;28;20050;-93
2022/08/24 05:13:39;;;;;;;41.10;31.17;;;17.10;99.90;;;;;;4976677;28;20047;-91
2022/08/24 05:16:07;;;;;;;42.95;31.35;;;16.90;99.90;;;;;;4960384;28;20053;-90
2022/08/24 05:18:33;;;;;;;40.58;30.75;;;17.10;99.90;;;;;;4959368;28;20047;-94
2022/08/24 05:20:59;;;;;;;43.90;31.52;;;17.30;99.90;;;;;;4958410;28;20043;-88
2022/08/24 05:23:25;;;;;;;41.60;30.88;;;17.10;99.90;;;;;;4976508;28;20073;-86
2022/08/24 05:25:51;;;;;;;46.60;32.17;;;17.20;99.90;;;;;;4976867;28;20419;-85
2022/08/24 05:28:17;;;;;;;46.67;32.65;;;17.20;99.90;;;;;;4976135;28;20058;-86
2022/08/24 05:30:42;;;;;;;42.72;31.98;;;17.30;99.90;;;;;;4959363;28;20039;-87
2022/08/24 05:33:08;;;;;;;41.22;30.63;;;17.40;99.90;;;;;;4958626;28;20046;-86
2022/08/24 05:35:38;;;;;;;43.38;32.60;;;17.40;99.90;;;;;;4976198;28;20057;-86
2022/08/24 05:38:04;;;;;;;43.88;32.83;;;17.60;99.90;;;;;;4975780;28;20043;-86
2022/08/24 05:40:30;;;;;;;43.75;32.92;;;17.70;99.90;;;;;;4975145;28;20410;-86
2022/08/24 05:42:55;;;;;;;45.72;33.47;;;18.10;99.90;;;;;;4976342;28;20051;-86
2022/08/24 05:45:21;;;;;;;52.40;37.72;;;17.60;99.90;;;;;;4958951;28;20395;-85
2022/08/24 05:47:47;;;;;;;51.83;37.35;;;17.80;99.90;;;;;;4975702;28;20043;-84
2022/08/24 05:50:12;;;;;;;51.47;36.97;;;17.80;99.90;;;;;;4976030;28;20034;-85
2022/08/24 05:52:38;;;;;;;53.08;36.72;;;18.00;99.90;;;;;;4958258;28;20505;-86
2022/08/24 05:55:04;;;;;;;49.55;36.45;;;18.00;99.90;;;;;;4975409;28;20043;-85
2022/08/24 05:57:32;;;;;;;53.38;38.17;;;18.00;99.90;;;;;;4975525;28;20145;-85
2022/08/24 05:59:58;;;;;;;53.78;38.15;;;18.10;99.90;;;;;;4976038;28;20050;-85
2022/08/24 06:02:24;;;;;;;56.97;40.22;;;18.20;99.90;;;;;;4977560;28;20047;-85
2022/08/24 06:04:49;;;;;;;57.33;39.33;;;18.20;99.90;;;;;;4958606;28;20065;-83
2022/08/24 06:07:15;;;;;;;59.13;40.22;;;18.60;99.90;;;;;;4958060;28;20044;-86
2022/08/24 06:09:42;;;;;;;61.20;41.22;;;18.40;99.90;;;;;;4974964;28;20090;-85
2022/08/24 06:12:08;;;;;;;63.13;42.85;;;18.70;99.90;;;;;;4977572;28;20050;-84
2022/08/24 06:14:34;;;;;;;64.63;44.28;;;18.60;99.90;;;;;;4977228;28;20075;-87
2022/08/24 06:17:02;;;;;;;63.30;44.40;;;18.70;99.90;;;;;;4994392;28;20039;-85
2022/08/24 06:19:28;;;;;;;64.53;44.72;;;18.80;99.90;;;;;;4994649;28;20482;-85
2022/08/24 06:21:54;;;;;;;64.93;45.63;;;18.80;99.90;;;;;;4978723;28;20077;-85
2022/08/24 06:27:52;;;;;;;65.65;44.58;;;19.20;99.90;;;;;;4977357;28;20053;-86
2022/08/24 06:30:19;;;;;;;65.75;44.00;;;19.00;99.90;;;;;;4970990;28;20078;-88
2022/08/24 06:32:45;;;;;;;63.30;43.55;;;19.20;99.90;;;;;;4998715;28;20106;-91
2022/08/24 06:35:23;;;;;;;58.85;42.55;;;19.40;99.90;;;;;;4971369;28;20060;-92
2022/08/24 06:37:55;;;;;;;63.63;44.28;;;19.80;99.90;;;;;;4962935;28;20145;-90
2022/08/24 06:40:20;;;;;;;64.05;45.20;;;20.10;99.90;;;;;;4977469;28;20069;-88
2022/08/24 06:42:47;;;;;;;64.18;46.67;;;20.10;99.90;;;;;;4979753;28;20050;-90
2022/08/24 06:45:22;;;;;;;59.05;43.55;;;19.20;99.90;;;;;;4956997;28;20059;-88
2022/08/24 06:47:48;;;;;;;63.72;45.10;;;19.70;99.90;;;;;;4957689;28;20562;-88
2022/08/24 06:50:14;;;;;;;64.18;46.67;;;19.70;99.90;;;;;;4974570;28;20438;-88
2022/08/24 06:52:40;;;;;;;63.92;46.60;;;19.80;99.90;;;;;;4974729;28;20047;-87
2022/08/24 06:55:06;;;;;;;64.35;47.28;;;19.90;99.90;;;;;;4958020;28;20043;-88
2022/08/24 06:57:32;;;;;;;62.85;47.47;;;20.00;99.90;;;;;;4958540;28;20066;-88
2022/08/24 06:59:57;;;;;;;64.05;45.85;;;20.10;99.90;;;;;;4960071;28;20499;-88
2022/08/24 07:02:23;;;;;;;60.03;44.67;;;20.20;99.90;;;;;;4978631;28;20372;-87
2022/08/24 07:04:49;;;;;;;59.33;45.40;;;20.30;99.90;;;;;;4962280;28;20050;-89
2022/08/24 07:07:15;;;;;;;59.25;44.20;;;20.70;99.90;;;;;;4976208;28;20046;-91
2022/08/24 07:09:41;;;;;;;58.95;43.38;;;20.70;99.90;;;;;;4979085;28;20035;-91
2022/08/24 07:12:13;;;;;;;56.63;42.30;;;20.80;99.90;;;;;;4957815;28;20471;-85
2022/08/24 07:14:38;;;;;;;54.13;42.15;;;21.50;99.90;;;;;;4974625;28;20122;-89
2022/08/24 07:17:04;;;;;;;48.67;40.65;;;21.10;99.90;;;;;;4958096;28;20074;-87
2022/08/24 07:19:30;;;;;;;50.60;39.47;;;21.40;99.90;;;;;;4956422;28;20403;-88
2022/08/24 07:21:58;;;;;;;46.13;37.08;;;21.90;99.90;;;;;;4957294;28;20517;-87
2022/08/24 07:24:24;;;;;;;49.33;38.25;;;21.70;99.90;;;;;;4974408;28;20046;-86
2022/08/24 07:26:51;;;;;;;46.33;37.25;;;21.70;99.90;;;;;;4973349;28;20487;-85
2022/08/24 07:29:18;;;;;;;42.75;36.20;;;21.80;99.90;;;;;;4956595;28;20050;-86
2022/08/24 07:31:44;;;;;;;43.75;34.90;;;21.90;99.90;;;;;;4957011;28;20053;-85
2022/08/24 07:34:10;;;;;;;39.28;32.25;;;21.90;99.90;;;;;;4973344;28;20491;-86
2022/08/24 07:36:37;;;;;;;36.47;29.25;;;21.90;99.90;;;;;;4956632;28;20047;-86
2022/08/24 07:39:04;;;;;;;37.95;29.83;;;22.20;99.90;;;;;;4956826;28;20467;-86
2022/08/24 07:41:30;;;;;;;36.70;28.60;;;22.30;99.90;;;;;;4956265;28;20104;-86
2022/08/24 07:43:56;;;;;;;35.05;27.70;;;22.40;99.90;;;;;;4956973;28;20406;-86
2022/08/24 07:46:22;;;;;;;35.30;26.95;;;22.50;99.90;;;;;;4957017;28;20043;-86
2022/08/24 07:48:48;;;;;;;32.55;26.77;;;22.70;99.90;;;;;;4973316;28;20046;-85
2022/08/24 07:51:17;;;;;;;31.08;23.67;;;22.80;99.90;;;;;;4974058;28;20395;-86
2022/08/24 07:53:43;;;;;;;28.98;24.48;;;23.00;99.90;;;;;;4973298;28;20117;-86
2022/08/24 07:56:09;;;;;;;31.73;25.75;;;23.10;99.90;;;;;;4957144;28;20133;-86
2022/08/24 07:58:35;;;;;;;31.45;25.48;;;23.20;99.90;;;;;;4965077;28;20114;-86
2022/08/24 08:01:03;;;;;;;28.58;22.92;;;23.30;99.90;;;;;;4956290;28;20340;-85
2022/08/24 08:03:32;;;;;;;28.52;23.83;;;23.50;99.90;;;;;;4973722;28;20042;-86
2022/08/24 08:06:00;;;;;;;28.17;22.00;;;23.60;99.90;;;;;;4956553;28;20046;-86
2022/08/24 08:08:26;;;;;;;25.60;21.45;;;23.70;99.90;;;;;;4955460;28;20394;-86
2022/08/24 08:10:52;;;;;;;27.20;20.38;;;23.80;99.90;;;;;;4956433;28;20402;-86
2022/08/24 08:13:18;;;;;;;27.30;24.30;;;24.00;99.90;;;;;;4956502;28;20049;-86
2022/08/24 08:15:44;;;;;;;29.13;24.40;;;24.10;99.90;;;;;;4955629;28;20053;-86
2022/08/24 08:18:10;;;;;;;26.20;22.15;;;24.10;99.90;;;;;;4974001;28;20039;-86
2022/08/24 08:20:38;;;;;;;24.63;21.83;;;24.20;99.90;;;;;;4973775;28;20054;-86
2022/08/24 08:25:51;;;;;;;26.58;20.75;;;24.40;99.90;;;;;;4956143;28;20059;-87
2022/08/24 08:28:17;;;;;;;23.33;17.63;;;24.80;99.90;;;;;;4973332;28;20050;-86
2022/08/24 08:30:44;;;;;;;27.15;17.27;;;24.90;99.90;;;;;;4955587;28;20039;-86
2022/08/24 08:33:11;;;;;;;20.83;14.68;;;24.70;99.90;;;;;;4956396;28;20047;-86
2022/08/24 08:35:37;;;;;;;18.83;13.77;;;24.80;99.90;;;;;;4973550;28;20058;-86
2022/08/24 08:38:03;;;;;;;17.92;13.02;;;25.20;99.90;;;;;;4955637;28;20167;-87
2022/08/24 08:40:44;;;;;;;17.92;12.75;;;25.00;99.90;;;;;;4973338;28;20047;-86
2022/08/24 08:43:44;;;;;;;19.33;12.88;;;25.10;99.90;;;;;;4955565;28;20467;-86
2022/08/24 08:46:43;;;;;;;16.58;12.60;;;25.10;99.90;;;;;;4970556;28;20142;-86
2022/08/24 08:49:35;;;;;;;16.42;11.50;;;25.20;99.90;;;;;;4955262;28;20055;-86
2022/08/24 08:52:38;;;;;;;19.77;13.80;;;25.30;99.90;;;;;;4962201;28;20051;-86
2022/08/24 08:55:26;;;;;;;18.90;13.23;;;25.40;99.90;;;;;;4956636;28;20475;-86
2022/08/24 08:58:16;;;;;;;17.63;9.20;;;25.50;99.90;;;;;;4955501;28;20051;-86
2022/08/24 09:00:56;;;;;;;16.00;8.65;;;25.50;99.90;;;;;;4973469;28;20054;-85
2022/08/24 09:03:31;;;;;;;12.52;9.23;;;25.70;99.90;;;;;;4973024;28;20491;-86
2022/08/24 09:06:35;;;;;;;18.70;9.23;;;25.70;99.90;;;;;;4972476;28;20062;-86
2022/08/24 09:09:06;;;;;;;;;;;25.70;99.90;;;;;;4973787;28;20043;-86
2022/08/24 09:11:43;;;;;;;14.63;8.88;;;25.90;99.90;;;;;;4972418;28;19923;-86
2022/08/24 09:14:43;;;;;;;14.95;8.65;;;26.00;99.90;;;;;;4957599;28;20051;-86
2022/08/24 09:17:51;;;;;;;13.77;7.35;;;26.00;99.90;;;;;;4959557;28;20047;-87
2022/08/24 09:20:54;;;;;;;15.80;8.63;;;26.20;99.90;;;;;;4937314;28;20141;-85
2022/08/24 09:23:59;;;;;;;14.50;9.37;;;26.30;99.90;;;;;;4976624;28;20046;-85
2022/08/24 09:26:28;;;;;;;13.55;8.32;;;26.40;99.90;;;;;;4946557;28;20411;-85
2022/08/24 09:29:29;;;;;;;13.20;7.97;;;26.60;99.90;;;;;;4976567;28;20069;-86
2022/08/24 09:31:59;;;;;;;11.95;7.50;;;26.70;99.90;;;;;;4976860;28;20055;-85
2022/08/24 09:34:40;;;;;;;14.45;8.13;;;26.70;99.90;;;;;;4973519;28;20051;-83
2022/08/24 09:37:08;;;;;;;13.98;8.25;;;26.70;99.90;;;;;;4976387;28;20050;-83
2022/08/24 09:39:58;;;;;;;14.10;7.60;;;26.80;99.90;;;;;;4975356;28;20054;-83
2022/08/24 09:42:48;;;;;;;15.70;7.43;;;26.90;99.90;;;;;;4975822;28;20411;-82
2022/08/24 09:45:34;;;;;;;12.35;6.75;;;27.10;99.90;;;;;;4920239;28;20051;-82
2022/08/24 09:48:19;;;;;;;14.35;8.70;;;27.20;99.90;;;;;;4958396;28;20442;-84
2022/08/24 09:51:19;;;;;;;13.50;7.78;;;27.30;99.90;;;;;;4958771;28;20418;-83
2022/08/24 09:54:23;;;;;;;10.18;6.30;;;27.30;99.90;;;;;;4960460;28;20039;-83
2022/08/24 09:56:55;;;;;;;14.48;9.38;;;27.60;99.90;;;;;;4958561;28;20047;-82
2022/08/24 09:59:50;;;;;;;14.63;9.13;;;27.60;99.90;;;;;;4975658;28;20047;-82
2022/08/24 10:02:35;;;;;;;14.02;7.93;;;27.70;99.90;;;;;;4973715;28;20076;-83
2022/08/24 10:05:10;;;;;;;11.55;7.13;;;27.70;99.90;;;;;;4975703;28;20402;-83
2022/08/24 10:08:02;;;;;;;13.40;8.15;;;27.70;99.90;;;;;;4975209;28;20050;-83
2022/08/24 10:10:35;;;;;;;13.23;7.88;;;27.80;99.90;;;;;;4974246;28;20050;-83
2022/08/24 10:13:47;;;;;;;13.77;7.97;;;27.90;99.90;;;;;;4972237;28;20055;-82
2022/08/24 10:16:43;;;;;;;11.95;6.40;;;28.00;99.90;;;;;;4878985;29;20137;-83
2022/08/24 10:19:29;;;;;;;12.48;5.97;;;28.10;99.90;;;;;;4873151;29;20094;-82
2022/08/24 10:22:05;;;;;;;10.15;5.35;;;28.30;99.90;;;;;;4957671;28;20670;-82
2022/08/24 10:24:58;;;;;;;13.25;5.40;;;28.40;99.90;;;;;;4964277;28;20039;-86
2022/08/24 10:28:07;;;;;;;11.48;5.63;;;28.60;99.90;;;;;;4958109;28;20497;-86
2022/08/24 10:31:17;;;;;;;11.55;4.95;;;28.50;99.90;;;;;;4911753;28;20054;-87
2022/08/24 10:34:41;;;;;;;11.05;4.70;;;28.70;99.90;;;;;;4957305;28;20070;-85
2022/08/24 10:37:22;;;;;;;11.00;4.72;;;28.90;99.90;;;;;;4899917;29;20052;-85
2022/08/24 10:40:11;;;;;;;9.85;4.53;;;29.00;99.90;;;;;;4953054;28;20059;-86
2022/08/24 10:43:34;;;;;;;11.23;3.58;;;29.20;99.90;;;;;;4973110;28;20138;-88
2022/08/24 10:46:15;;;;;;;9.98;3.17;;;29.30;99.90;;;;;;4974838;28;20548;-85
2022/08/24 10:48:59;;;;;;;7.90;2.90;;;29.40;99.90;;;;;;4974322;28;20055;-85
2022/08/24 10:51:41;;;;;;;7.95;2.80;;;29.60;99.90;;;;;;4956510;28;20530;-85
2022/08/24 10:54:11;;;;;;;5.35;2.20;;;29.70;99.60;;;;;;4974515;28;20086;-85
2022/08/24 10:56:51;;;;;;;6.78;2.30;;;29.70;99.90;;;;;;4956316;28;20151;-85
2022/08/24 10:59:22;;;;;;;8.60;3.00;;;29.80;99.00;;;;;;4973819;28;20039;-86
2022/08/24 11:02:06;;;;;;;7.82;2.80;;;29.90;99.60;;;;;;4974527;28;20101;-86
2022/08/24 11:04:34;;;;;;;7.15;2.70;;;29.90;98.00;;;;;;4963008;28;20494;-84
2022/08/24 11:07:08;;;;;;;6.15;2.42;;;30.00;99.00;;;;;;4956829;28;20054;-84
2022/08/24 11:09:51;;;;;;;8.75;2.85;;;30.10;98.60;;;;;;4974324;28;20072;-84
2022/08/24 11:12:31;;;;;;;6.78;2.53;;;30.30;98.30;;;;;;4983481;28;20050;-84
2022/08/24 11:15:17;;;;;;;11.35;2.63;;;30.50;98.30;;;;;;4974061;28;20074;-84
2022/08/24 11:17:57;;;;;;;6.03;2.25;;;30.50;97.40;;;;;;4956181;28;20403;-86
2022/08/24 11:20:39;;;;;;;6.70;2.60;;;30.50;97.60;;;;;;4956746;28;20038;-86
2022/08/24 11:23:19;;;;;;;6.30;2.50;;;30.60;96.90;;;;;;4974348;28;20530;-85
2022/08/24 11:26:02;;;;;;;7.05;2.50;;;30.50;97.70;;;;;;4973869;28;20061;-85
2022/08/24 11:28:52;;;;;;;7.65;2.65;;;30.60;97.00;;;;;;4971559;28;20074;-86
2022/08/24 11:31:42;;;;;;;6.43;2.30;;;30.70;97.10;;;;;;4986778;28;20110;-85
2022/08/24 11:34:14;;;;;;;6.68;2.50;;;30.90;97.00;;;;;;4957367;28;20155;-85
2022/08/24 11:36:41;;;;;;;6.30;2.40;;;30.80;97.30;;;;;;4974954;28;20062;-85
2022/08/24 11:39:20;;;;;;;6.55;2.47;;;30.80;96.80;;;;;;4975097;28;20054;-85
2022/08/24 11:42:07;;;;;;;7.03;2.72;;;30.90;96.20;;;;;;4975929;28;20085;-86
2022/08/24 11:44:37;;;;;;;7.55;2.50;;;30.90;95.90;;;;;;4976010;28;20169;-85
2022/08/24 11:47:14;;;;;;;5.93;2.28;;;30.80;95.60;;;;;;4975239;28;20508;-88
2022/08/24 11:49:39;;;;;;;6.18;2.20;;;30.70;95.50;;;;;;4976263;28;20050;-84
2022/08/24 11:52:23;;;;;;;6.10;2.40;;;31.00;96.00;;;;;;4976320;28;20058;-81
2022/08/24 11:55:10;;;;;;;6.03;2.40;;;31.10;94.90;;;;;;4992404;28;20046;-83
2022/08/24 11:58:10;;;;;;;6.78;2.60;;;31.10;95.00;;;;;;4992981;28;20116;-83
2022/08/24 12:00:58;;;;;;;6.97;2.30;;;31.30;95.30;;;;;;4972124;28;20065;-82
2022/08/24 12:03:32;;;;;;;7.25;2.50;;;31.50;95.60;;;;;;4975621;28;20046;-82
2022/08/24 12:06:49;;;;;;;7.53;2.50;;;31.70;95.10;;;;;;4975553;28;20046;-82
2022/08/24 12:10:08;;;;;;;8.10;2.67;;;31.80;95.30;;;;;;4942884;28;20154;-83
2022/08/24 12:12:53;;;;;;;10.52;2.70;;;32.10;94.10;;;;;;4932688;29;20143;-82
2022/08/24 12:15:51;;;;;;;6.95;2.53;;;32.30;94.40;;;;;;4974683;28;20063;-83
2022/08/24 12:18:26;;;;;;;6.45;2.40;;;32.30;94.00;;;;;;4992941;28;20057;-83
2022/08/24 12:20:53;;;;;;;6.57;2.40;;;32.30;93.70;;;;;;4967831;28;20075;-82
2022/08/24 12:23:47;;;;;;;6.30;2.22;;;32.40;93.90;;;;;;4991792;28;20486;-82
2022/08/24 12:26:25;;;;;;;5.97;2.28;;;32.50;92.80;;;;;;4981062;28;20610;-83
2022/08/24 12:28:55;;;;;;;6.35;2.40;;;32.50;92.60;;;;;;4961550;28;20069;-83
2022/08/24 12:31:38;;;;;;;7.05;2.47;;;32.50;92.80;;;;;;4966951;28;20503;-82
2022/08/24 12:34:20;;;;;;;6.97;2.50;;;32.50;93.20;;;;;;4984236;28;20089;-83
2022/08/24 12:37:20;;;;;;;6.50;2.50;;;32.60;92.40;;;;;;4965375;28;20050;-83
2022/08/24 12:40:03;;;;;;;8.18;2.63;;;32.50;92.10;;;;;;4962035;28;20050;-82
2022/08/24 12:42:43;;;;;;;7.63;2.78;;;32.70;92.40;;;;;;4981012;28;20074;-82
2022/08/24 12:45:15;;;;;;;6.55;2.67;;;33.00;92.20;;;;;;4959918;28;20050;-81
2022/08/24 12:47:44;;;;;;;7.45;2.67;;;32.90;92.20;;;;;;4965727;28;20034;-81
2022/08/24 12:50:24;;;;;;;8.05;3.17;;;32.60;92.60;;;;;;4965532;28;20105;-81
2022/08/24 12:53:07;;;;;;;8.07;2.80;;;32.50;92.60;;;;;;4966332;28;20074;-80
2022/08/24 12:55:42;;;;;;;6.60;2.45;;;32.50;92.90;;;;;;4965950;28;20422;-82
2022/08/24 12:58:28;;;;;;;6.30;2.40;;;32.50;92.20;;;;;;4986866;28;20050;-83
2022/08/24 13:00:54;;;;;;;6.15;2.42;;;32.20;92.20;;;;;;4969237;28;20043;-82
2022/08/24 13:03:30;;;;;;;8.75;2.65;;;32.30;92.70;;;;;;4969320;28;20530;-83
2022/08/24 13:06:00;;;;;;;8.02;3.20;;;32.30;91.60;;;;;;4977356;28;20054;-83
2022/08/24 13:08:42;;;;;;;7.43;2.58;;;32.40;92.00;;;;;;4978648;28;20524;-81
2022/08/24 13:11:28;;;;;;;7.72;2.80;;;32.70;92.00;;;;;;4977928;28;20046;-81
2022/08/24 13:13:53;;;;;;;7.50;2.67;;;32.70;92.30;;;;;;4978749;28;20084;-78